sensor_id;sensor_type;location;lat;lon;timestamp;temperature;humidity
78366;HTU21D;67641;59.864;30.464;2023-12-20T00:00:22;14.99;51.00
78366;HTU21D;67641;59.864;30.464;2023-12-20T00:02:48;15.00;51.11
78366;HTU21D;67641;59.864;30.464;2023-12-20T00:05:15;14.99;51.21
78366;HTU21D;67641;59.864;30.464;2023-12-20T00:07:41;14.99;51.40
78366;HTU21D;67641;59.864;30.464;2023-12-20T00:10:08;14.97;51.60
78366;HTU21D;67641;59.864;30.464;2023-12-20T00:12:35;14.95;51.86
78366;HTU21D;67641;59.864;30.464;2023-12-20T00:15:01;14.95;51.98
78366;HTU21D;67641;59.864;30.464;2023-12-20T00:17:28;14.94;52.11
78366;HTU21D;67641;59.864;30.464;2023-12-20T00:19:55;14.93;52.23
78366;HTU21D;67641;59.864;30.464;2023-12-20T00:22:21;14.95;52.30
78366;HTU21D;67641;59.864;30.464;2023-12-20T00:24:48;14.93;52.42
78366;HTU21D;67641;59.864;30.464;2023-12-20T00:27:14;14.95;52.87
78366;HTU21D;67641;59.864;30.464;2023-12-20T00:29:41;14.94;52.85
78366;HTU21D;67641;59.864;30.464;2023-12-20T00:32:09;14.95;53.07
78366;HTU21D;67641;59.864;30.464;2023-12-20T00:34:35;14.94;53.31
78366;HTU21D;67641;59.864;30.464;2023-12-20T00:37:02;14.91;53.45
78366;HTU21D;67641;59.864;30.464;2023-12-20T00:39:28;14.88;53.54
78366;HTU21D;67641;59.864;30.464;2023-12-20T00:41:54;14.91;53.45
78366;HTU21D;67641;59.864;30.464;2023-12-20T00:44:21;14.91;53.74
78366;HTU21D;67641;59.864;30.464;2023-12-20T00:46:47;14.88;53.87
78366;HTU21D;67641;59.864;30.464;2023-12-20T00:49:14;14.88;53.90
78366;HTU21D;67641;59.864;30.464;2023-12-20T00:51:40;14.89;53.90
78366;HTU21D;67641;59.864;30.464;2023-12-20T00:54:06;14.87;54.00
78366;HTU21D;67641;59.864;30.464;2023-12-20T00:56:33;14.92;53.99
78366;HTU21D;67641;59.864;30.464;2023-12-20T00:58:59;14.94;53.95
78366;HTU21D;67641;59.864;30.464;2023-12-20T01:01:25;14.98;53.88
78366;HTU21D;67641;59.864;30.464;2023-12-20T01:03:52;15.01;53.81
78366;HTU21D;67641;59.864;30.464;2023-12-20T01:06:19;15.01;53.75
78366;HTU21D;67641;59.864;30.464;2023-12-20T01:08:45;15.02;53.75
78366;HTU21D;67641;59.864;30.464;2023-12-20T01:11:11;15.03;53.65
78366;HTU21D;67641;59.864;30.464;2023-12-20T01:13:40;15.07;53.72
78366;HTU21D;67641;59.864;30.464;2023-12-20T01:16:10;15.04;53.84
78366;HTU21D;67641;59.864;30.464;2023-12-20T01:18:37;15.02;53.97
78366;HTU21D;67641;59.864;30.464;2023-12-20T01:21:04;15.02;53.91
78366;HTU21D;67641;59.864;30.464;2023-12-20T01:23:32;15.01;53.93
78366;HTU21D;67641;59.864;30.464;2023-12-20T01:25:58;15.02;54.17
78366;HTU21D;67641;59.864;30.464;2023-12-20T01:28:28;14.98;54.40
78366;HTU21D;67641;59.864;30.464;2023-12-20T01:30:55;14.98;54.32
78366;HTU21D;67641;59.864;30.464;2023-12-20T01:33:22;14.96;54.39
78366;HTU21D;67641;59.864;30.464;2023-12-20T01:35:48;14.93;54.55
78366;HTU21D;67641;59.864;30.464;2023-12-20T01:38:15;14.92;54.65
78366;HTU21D;67641;59.864;30.464;2023-12-20T01:40:44;14.89;54.68
78366;HTU21D;67641;59.864;30.464;2023-12-20T01:43:11;14.87;54.86
78366;HTU21D;67641;59.864;30.464;2023-12-20T01:45:40;14.83;55.11
78366;HTU21D;67641;59.864;30.464;2023-12-20T01:48:08;14.83;54.81
78366;HTU21D;67641;59.864;30.464;2023-12-20T01:50:36;14.83;54.71
78366;HTU21D;67641;59.864;30.464;2023-12-20T01:53:04;14.83;54.89
78366;HTU21D;67641;59.864;30.464;2023-12-20T01:55:35;14.83;54.89
78366;HTU21D;67641;59.864;30.464;2023-12-20T01:58:03;14.81;54.88
78366;HTU21D;67641;59.864;30.464;2023-12-20T02:00:30;14.82;55.02
78366;HTU21D;67641;59.864;30.464;2023-12-20T02:03:00;14.80;55.16
78366;HTU21D;67641;59.864;30.464;2023-12-20T02:05:27;14.77;55.27
78366;HTU21D;67641;59.864;30.464;2023-12-20T02:07:54;14.77;55.52
78366;HTU21D;67641;59.864;30.464;2023-12-20T02:10:21;14.75;55.62
78366;HTU21D;67641;59.864;30.464;2023-12-20T02:12:47;14.75;55.68
78366;HTU21D;67641;59.864;30.464;2023-12-20T02:15:14;14.73;55.74
78366;HTU21D;67641;59.864;30.464;2023-12-20T02:17:44;14.74;55.90
78366;HTU21D;67641;59.864;30.464;2023-12-20T02:20:11;14.71;56.13
78366;HTU21D;67641;59.864;30.464;2023-12-20T02:22:38;14.69;56.12
78366;HTU21D;67641;59.864;30.464;2023-12-20T02:25:04;14.69;56.23
78366;HTU21D;67641;59.864;30.464;2023-12-20T02:27:31;14.68;56.45
78366;HTU21D;67641;59.864;30.464;2023-12-20T02:29:58;14.68;56.62
78366;HTU21D;67641;59.864;30.464;2023-12-20T02:32:25;14.66;56.72
78366;HTU21D;67641;59.864;30.464;2023-12-20T02:34:53;14.68;56.81
78366;HTU21D;67641;59.864;30.464;2023-12-20T02:37:20;14.75;56.76
78366;HTU21D;67641;59.864;30.464;2023-12-20T02:39:46;14.83;56.73
78366;HTU21D;67641;59.864;30.464;2023-12-20T02:42:13;14.87;56.66
78366;HTU21D;67641;59.864;30.464;2023-12-20T02:44:39;14.92;56.77
78366;HTU21D;67641;59.864;30.464;2023-12-20T02:47:05;14.95;56.69
78366;HTU21D;67641;59.864;30.464;2023-12-20T02:49:32;14.97;56.61
78366;HTU21D;67641;59.864;30.464;2023-12-20T02:51:58;15.00;56.56
78366;HTU21D;67641;59.864;30.464;2023-12-20T02:54:25;15.02;56.23
78366;HTU21D;67641;59.864;30.464;2023-12-20T02:56:51;15.04;56.18
78366;HTU21D;67641;59.864;30.464;2023-12-20T02:59:18;15.08;56.06
78366;HTU21D;67641;59.864;30.464;2023-12-20T03:01:45;15.10;55.78
78366;HTU21D;67641;59.864;30.464;2023-12-20T03:04:12;15.12;55.67
78366;HTU21D;67641;59.864;30.464;2023-12-20T03:06:38;15.15;55.60
78366;HTU21D;67641;59.864;30.464;2023-12-20T03:09:05;15.17;55.58
78366;HTU21D;67641;59.864;30.464;2023-12-20T03:11:31;15.19;55.49
78366;HTU21D;67641;59.864;30.464;2023-12-20T03:13:58;15.22;55.57
78366;HTU21D;67641;59.864;30.464;2023-12-20T03:16:24;15.21;55.67
78366;HTU21D;67641;59.864;30.464;2023-12-20T03:18:51;15.18;55.72
78366;HTU21D;67641;59.864;30.464;2023-12-20T03:21:17;15.18;55.78
78366;HTU21D;67641;59.864;30.464;2023-12-20T03:23:45;15.18;55.90
78366;HTU21D;67641;59.864;30.464;2023-12-20T03:26:11;15.15;56.13
78366;HTU21D;67641;59.864;30.464;2023-12-20T03:28:38;15.12;56.36
78366;HTU21D;67641;59.864;30.464;2023-12-20T03:31:04;15.10;56.40
78366;HTU21D;67641;59.864;30.464;2023-12-20T03:33:31;15.07;56.55
78366;HTU21D;67641;59.864;30.464;2023-12-20T03:35:57;15.07;56.61
78366;HTU21D;67641;59.864;30.464;2023-12-20T03:38:24;15.03;56.74
78366;HTU21D;67641;59.864;30.464;2023-12-20T03:40:50;15.01;56.74
78366;HTU21D;67641;59.864;30.464;2023-12-20T03:43:17;15.01;56.81
78366;HTU21D;67641;59.864;30.464;2023-12-20T03:45:43;15.00;56.93
78366;HTU21D;67641;59.864;30.464;2023-12-20T03:48:10;14.99;56.84
78366;HTU21D;67641;59.864;30.464;2023-12-20T03:50:36;14.97;57.02
78366;HTU21D;67641;59.864;30.464;2023-12-20T03:53:03;14.96;57.17
78366;HTU21D;67641;59.864;30.464;2023-12-20T03:55:30;14.93;57.34
78366;HTU21D;67641;59.864;30.464;2023-12-20T03:57:56;14.89;57.47
78366;HTU21D;67641;59.864;30.464;2023-12-20T04:00:22;14.91;57.54
78366;HTU21D;67641;59.864;30.464;2023-12-20T04:02:49;14.88;57.55
78366;HTU21D;67641;59.864;30.464;2023-12-20T04:05:15;14.86;57.73
78366;HTU21D;67641;59.864;30.464;2023-12-20T04:07:42;14.83;58.06
78366;HTU21D;67641;59.864;30.464;2023-12-20T04:10:08;14.82;58.86
78366;HTU21D;67641;59.864;30.464;2023-12-20T04:12:35;14.75;58.69
78366;HTU21D;67641;59.864;30.464;2023-12-20T04:15:01;14.73;58.99
78366;HTU21D;67641;59.864;30.464;2023-12-20T04:17:29;14.70;59.01
78366;HTU21D;67641;59.864;30.464;2023-12-20T04:19:56;14.67;59.31
78366;HTU21D;67641;59.864;30.464;2023-12-20T04:22:22;14.64;59.32
78366;HTU21D;67641;59.864;30.464;2023-12-20T04:24:49;14.60;59.46
78366;HTU21D;67641;59.864;30.464;2023-12-20T04:27:15;14.59;59.74
78366;HTU21D;67641;59.864;30.464;2023-12-20T04:29:41;14.58;59.57
78366;HTU21D;67641;59.864;30.464;2023-12-20T04:32:09;14.58;59.51
78366;HTU21D;67641;59.864;30.464;2023-12-20T04:34:36;14.56;59.95
78366;HTU21D;67641;59.864;30.464;2023-12-20T04:37:02;14.55;60.25
78366;HTU21D;67641;59.864;30.464;2023-12-20T04:39:29;14.54;60.39
78366;HTU21D;67641;59.864;30.464;2023-12-20T04:41:55;14.51;60.47
78366;HTU21D;67641;59.864;30.464;2023-12-20T04:44:22;14.52;60.51
78366;HTU21D;67641;59.864;30.464;2023-12-20T04:46:48;14.51;60.61
78366;HTU21D;67641;59.864;30.464;2023-12-20T04:49:15;14.52;60.63
78366;HTU21D;67641;59.864;30.464;2023-12-20T04:51:41;14.51;60.83
78366;HTU21D;67641;59.864;30.464;2023-12-20T04:54:08;14.51;61.43
78366;HTU21D;67641;59.864;30.464;2023-12-20T04:56:34;14.52;61.47
78366;HTU21D;67641;59.864;30.464;2023-12-20T04:59:01;14.51;61.50
78366;HTU21D;67641;59.864;30.464;2023-12-20T05:01:27;14.54;61.60
78366;HTU21D;67641;59.864;30.464;2023-12-20T05:03:54;14.52;61.60
78366;HTU21D;67641;59.864;30.464;2023-12-20T05:06:20;14.56;61.92
78366;HTU21D;67641;59.864;30.464;2023-12-20T05:08:46;14.58;61.96
78366;HTU21D;67641;59.864;30.464;2023-12-20T05:11:13;14.63;61.86
78366;HTU21D;67641;59.864;30.464;2023-12-20T05:13:41;14.66;62.15
78366;HTU21D;67641;59.864;30.464;2023-12-20T05:16:08;14.67;62.30
78366;HTU21D;67641;59.864;30.464;2023-12-20T05:18:35;14.74;62.18
78366;HTU21D;67641;59.864;30.464;2023-12-20T05:21:01;14.81;61.97
78366;HTU21D;67641;59.864;30.464;2023-12-20T05:23:28;14.87;61.83
78366;HTU21D;67641;59.864;30.464;2023-12-20T05:25:54;14.94;61.47
78366;HTU21D;67641;59.864;30.464;2023-12-20T05:28:20;15.03;61.09
78366;HTU21D;67641;59.864;30.464;2023-12-20T05:30:47;15.13;60.72
78366;HTU21D;67641;59.864;30.464;2023-12-20T05:33:13;15.27;60.61
78366;HTU21D;67641;59.864;30.464;2023-12-20T05:35:40;15.48;60.38
78366;HTU21D;67641;59.864;30.464;2023-12-20T05:38:07;16.00;58.96
78366;HTU21D;67641;59.864;30.464;2023-12-20T05:40:34;16.70;56.95
78366;HTU21D;67641;59.864;30.464;2023-12-20T05:43:00;17.48;54.81
78366;HTU21D;67641;59.864;30.464;2023-12-20T05:45:26;18.25;52.06
78366;HTU21D;67641;59.864;30.464;2023-12-20T05:47:53;18.85;50.33
78366;HTU21D;67641;59.864;30.464;2023-12-20T05:50:19;19.44;48.76
78366;HTU21D;67641;59.864;30.464;2023-12-20T05:52:47;19.96;47.50
78366;HTU21D;67641;59.864;30.464;2023-12-20T05:55:13;20.37;46.18
78366;HTU21D;67641;59.864;30.464;2023-12-20T05:57:40;20.74;45.33
78366;HTU21D;67641;59.864;30.464;2023-12-20T06:00:08;21.22;44.09
78366;HTU21D;67641;59.864;30.464;2023-12-20T06:02:35;21.72;43.02
78366;HTU21D;67641;59.864;30.464;2023-12-20T06:05:04;22.12;41.84
78366;HTU21D;67641;59.864;30.464;2023-12-20T06:07:31;22.58;40.65
78366;HTU21D;67641;59.864;30.464;2023-12-20T06:09:58;22.58;40.23
78366;HTU21D;67641;59.864;30.464;2023-12-20T06:12:25;22.67;40.05
78366;HTU21D;67641;59.864;30.464;2023-12-20T06:14:53;22.91;39.60
78366;HTU21D;67641;59.864;30.464;2023-12-20T06:17:19;23.14;39.27
78366;HTU21D;67641;59.864;30.464;2023-12-20T06:19:46;23.10;39.21
78366;HTU21D;67641;59.864;30.464;2023-12-20T06:22:17;23.35;38.72
78366;HTU21D;67641;59.864;30.464;2023-12-20T06:24:43;23.38;38.76
78366;HTU21D;67641;59.864;30.464;2023-12-20T06:27:10;23.56;38.50
78366;HTU21D;67641;59.864;30.464;2023-12-20T06:29:36;23.80;37.98
78366;HTU21D;67641;59.864;30.464;2023-12-20T06:32:03;23.98;37.75
78366;HTU21D;67641;59.864;30.464;2023-12-20T06:34:29;24.20;37.50
78366;HTU21D;67641;59.864;30.464;2023-12-20T06:36:56;24.34;37.21
78366;HTU21D;67641;59.864;30.464;2023-12-20T06:39:22;24.29;37.56
78366;HTU21D;67641;59.864;30.464;2023-12-20T06:41:49;24.14;37.86
78366;HTU21D;67641;59.864;30.464;2023-12-20T06:44:15;23.89;38.51
78366;HTU21D;67641;59.864;30.464;2023-12-20T06:46:42;23.84;38.72
78366;HTU21D;67641;59.864;30.464;2023-12-20T06:49:09;23.89;38.64
78366;HTU21D;67641;59.864;30.464;2023-12-20T06:51:35;23.91;38.62
78366;HTU21D;67641;59.864;30.464;2023-12-20T06:54:02;23.94;38.56
78366;HTU21D;67641;59.864;30.464;2023-12-20T06:56:28;23.96;38.53
78366;HTU21D;67641;59.864;30.464;2023-12-20T06:58:55;24.13;38.22
78366;HTU21D;67641;59.864;30.464;2023-12-20T07:01:21;24.56;37.27
78366;HTU21D;67641;59.864;30.464;2023-12-20T07:03:48;24.66;37.17
78366;HTU21D;67641;59.864;30.464;2023-12-20T07:06:15;24.80;36.79
78366;HTU21D;67641;59.864;30.464;2023-12-20T07:08:42;24.95;36.29
78366;HTU21D;67641;59.864;30.464;2023-12-20T07:11:09;25.03;35.89
78366;HTU21D;67641;59.864;30.464;2023-12-20T07:13:35;25.12;35.60
78366;HTU21D;67641;59.864;30.464;2023-12-20T07:16:02;25.01;35.89
78366;HTU21D;67641;59.864;30.464;2023-12-20T07:18:29;24.91;35.69
78366;HTU21D;67641;59.864;30.464;2023-12-20T07:20:55;24.82;35.99
78366;HTU21D;67641;59.864;30.464;2023-12-20T07:23:22;24.79;36.50
78366;HTU21D;67641;59.864;30.464;2023-12-20T07:25:48;25.03;36.27
78366;HTU21D;67641;59.864;30.464;2023-12-20T07:28:15;25.24;35.60
78366;HTU21D;67641;59.864;30.464;2023-12-20T07:30:41;25.14;35.43
78366;HTU21D;67641;59.864;30.464;2023-12-20T07:33:08;24.91;35.28
78366;HTU21D;67641;59.864;30.464;2023-12-20T07:35:35;24.87;35.17
78366;HTU21D;67641;59.864;30.464;2023-12-20T07:38:02;24.82;34.48
78366;HTU21D;67641;59.864;30.464;2023-12-20T07:40:33;24.57;34.57
78366;HTU21D;67641;59.864;30.464;2023-12-20T07:43:00;24.59;34.68
78366;HTU21D;67641;59.864;30.464;2023-12-20T07:45:26;24.54;34.90
78366;HTU21D;67641;59.864;30.464;2023-12-20T07:47:53;24.36;35.34
78366;HTU21D;67641;59.864;30.464;2023-12-20T07:50:19;24.33;34.79
78366;HTU21D;67641;59.864;30.464;2023-12-20T07:52:46;24.33;34.44
78366;HTU21D;67641;59.864;30.464;2023-12-20T07:55:12;24.30;34.44
78366;HTU21D;67641;59.864;30.464;2023-12-20T07:57:38;24.32;33.92
78366;HTU21D;67641;59.864;30.464;2023-12-20T08:00:05;24.58;33.95
78366;HTU21D;67641;59.864;30.464;2023-12-20T08:02:32;24.83;33.27
78366;HTU21D;67641;59.864;30.464;2023-12-20T08:04:58;24.83;32.79
78366;HTU21D;67641;59.864;30.464;2023-12-20T08:07:25;24.87;32.59
78366;HTU21D;67641;59.864;30.464;2023-12-20T08:09:51;24.91;32.17
78366;HTU21D;67641;59.864;30.464;2023-12-20T08:12:18;25.08;31.93
78366;HTU21D;67641;59.864;30.464;2023-12-20T08:14:44;25.03;31.41
78366;HTU21D;67641;59.864;30.464;2023-12-20T08:17:11;24.98;32.12
78366;HTU21D;67641;59.864;30.464;2023-12-20T08:19:38;25.07;31.83
78366;HTU21D;67641;59.864;30.464;2023-12-20T08:22:05;24.94;31.55
78366;HTU21D;67641;59.864;30.464;2023-12-20T08:24:31;24.93;30.80
78366;HTU21D;67641;59.864;30.464;2023-12-20T08:26:57;24.94;31.31
78366;HTU21D;67641;59.864;30.464;2023-12-20T08:29:24;25.00;31.98
78366;HTU21D;67641;59.864;30.464;2023-12-20T08:31:54;25.16;31.43
78366;HTU21D;67641;59.864;30.464;2023-12-20T08:34:24;25.34;30.13
78366;HTU21D;67641;59.864;30.464;2023-12-20T08:36:53;25.37;30.73
78366;HTU21D;67641;59.864;30.464;2023-12-20T08:39:21;25.58;30.91
78366;HTU21D;67641;59.864;30.464;2023-12-20T08:41:47;25.51;30.20
78366;HTU21D;67641;59.864;30.464;2023-12-20T08:44:14;25.54;30.09
78366;HTU21D;67641;59.864;30.464;2023-12-20T08:46:41;25.74;30.46
78366;HTU21D;67641;59.864;30.464;2023-12-20T08:49:07;26.15;29.65
78366;HTU21D;67641;59.864;30.464;2023-12-20T08:51:35;26.24;29.18
78366;HTU21D;67641;59.864;30.464;2023-12-20T08:54:02;26.20;29.42
78366;HTU21D;67641;59.864;30.464;2023-12-20T08:56:34;26.19;29.16
78366;HTU21D;67641;59.864;30.464;2023-12-20T08:59:00;26.03;29.66
78366;HTU21D;67641;59.864;30.464;2023-12-20T09:01:27;26.13;29.89
78366;HTU21D;67641;59.864;30.464;2023-12-20T09:03:53;26.42;29.71
78366;HTU21D;67641;59.864;30.464;2023-12-20T09:06:20;26.79;29.95
78366;HTU21D;67641;59.864;30.464;2023-12-20T09:08:46;26.93;29.18
78366;HTU21D;67641;59.864;30.464;2023-12-20T09:11:13;26.95;28.74
78366;HTU21D;67641;59.864;30.464;2023-12-20T09:13:40;27.24;28.48
78366;HTU21D;67641;59.864;30.464;2023-12-20T09:16:06;26.54;29.87
78366;HTU21D;67641;59.864;30.464;2023-12-20T09:18:33;26.53;30.00
78366;HTU21D;67641;59.864;30.464;2023-12-20T09:21:00;26.78;29.94
78366;HTU21D;67641;59.864;30.464;2023-12-20T09:23:26;26.62;28.60
78366;HTU21D;67641;59.864;30.464;2023-12-20T09:25:53;26.58;30.09
78366;HTU21D;67641;59.864;30.464;2023-12-20T09:28:20;26.77;29.17
78366;HTU21D;67641;59.864;30.464;2023-12-20T09:30:47;27.19;28.26
78366;HTU21D;67641;59.864;30.464;2023-12-20T09:33:14;27.69;28.61
78366;HTU21D;67641;59.864;30.464;2023-12-20T09:35:42;27.26;29.84
78366;HTU21D;67641;59.864;30.464;2023-12-20T09:38:09;27.08;29.90
78366;HTU21D;67641;59.864;30.464;2023-12-20T09:40:36;27.29;28.45
78366;HTU21D;67641;59.864;30.464;2023-12-20T09:43:19;27.67;27.72
78366;HTU21D;67641;59.864;30.464;2023-12-20T09:45:53;27.84;26.86
78366;HTU21D;67641;59.864;30.464;2023-12-20T09:48:20;28.30;26.42
78366;HTU21D;67641;59.864;30.464;2023-12-20T09:50:47;28.40;26.92
78366;HTU21D;67641;59.864;30.464;2023-12-20T09:53:15;27.98;28.00
78366;HTU21D;67641;59.864;30.464;2023-12-20T09:55:42;28.02;27.21
78366;HTU21D;67641;59.864;30.464;2023-12-20T09:58:09;28.14;27.27
78366;HTU21D;67641;59.864;30.464;2023-12-20T10:00:36;28.29;27.01
78366;HTU21D;67641;59.864;30.464;2023-12-20T10:03:03;28.20;28.77
78366;HTU21D;67641;59.864;30.464;2023-12-20T10:05:34;27.84;30.37
78366;HTU21D;67641;59.864;30.464;2023-12-20T10:08:01;27.50;31.06
78366;HTU21D;67641;59.864;30.464;2023-12-20T10:10:28;27.39;31.86
78366;HTU21D;67641;59.864;30.464;2023-12-20T10:13:20;27.22;31.64
78366;HTU21D;67641;59.864;30.464;2023-12-20T10:15:49;26.41;32.53
78366;HTU21D;67641;59.864;30.464;2023-12-20T10:18:17;26.34;32.49
78366;HTU21D;67641;59.864;30.464;2023-12-20T10:20:44;25.86;36.81
78366;HTU21D;67641;59.864;30.464;2023-12-20T10:23:11;25.63;37.79
78366;HTU21D;67641;59.864;30.464;2023-12-20T10:25:39;25.39;38.95
78366;HTU21D;67641;59.864;30.464;2023-12-20T10:30:37;25.16;39.22
78366;HTU21D;67641;59.864;30.464;2023-12-20T10:33:05;24.85;39.78
78366;HTU21D;67641;59.864;30.464;2023-12-20T10:35:37;24.59;39.84
78366;HTU21D;67641;59.864;30.464;2023-12-20T10:38:05;24.77;39.78
78366;HTU21D;67641;59.864;30.464;2023-12-20T10:40:35;24.95;39.03
78366;HTU21D;67641;59.864;30.464;2023-12-20T10:43:03;24.98;40.07
78366;HTU21D;67641;59.864;30.464;2023-12-20T10:45:30;24.93;40.84
78366;HTU21D;67641;59.864;30.464;2023-12-20T10:47:57;24.87;41.98
78366;HTU21D;67641;59.864;30.464;2023-12-20T10:50:26;24.87;40.16
78366;HTU21D;67641;59.864;30.464;2023-12-20T10:52:54;24.99;41.19
78366;HTU21D;67641;59.864;30.464;2023-12-20T10:55:22;25.03;41.80
78366;HTU21D;67641;59.864;30.464;2023-12-20T10:57:50;25.20;41.52
78366;HTU21D;67641;59.864;30.464;2023-12-20T11:00:21;25.06;41.38
78366;HTU21D;67641;59.864;30.464;2023-12-20T11:02:49;25.08;40.20
78366;HTU21D;67641;59.864;30.464;2023-12-20T11:08:49;24.85;40.04
78366;HTU21D;67641;59.864;30.464;2023-12-20T11:11:20;24.99;40.52
78366;HTU21D;67641;59.864;30.464;2023-12-20T11:14:00;24.77;41.97
78366;HTU21D;67641;59.864;30.464;2023-12-20T11:16:28;24.89;42.76
78366;HTU21D;67641;59.864;30.464;2023-12-20T11:18:54;25.06;42.22
78366;HTU21D;67641;59.864;30.464;2023-12-20T11:21:21;25.34;40.78
78366;HTU21D;67641;59.864;30.464;2023-12-20T11:23:47;25.19;41.42
78366;HTU21D;67641;59.864;30.464;2023-12-20T11:26:22;25.02;42.17
78366;HTU21D;67641;59.864;30.464;2023-12-20T11:28:53;24.88;42.39
78366;HTU21D;67641;59.864;30.464;2023-12-20T11:31:19;24.72;42.36
78366;HTU21D;67641;59.864;30.464;2023-12-20T11:33:46;24.92;43.20
78366;HTU21D;67641;59.864;30.464;2023-12-20T11:36:18;25.23;41.64
78366;HTU21D;67641;59.864;30.464;2023-12-20T11:38:56;25.38;40.91
78366;HTU21D;67641;59.864;30.464;2023-12-20T11:41:25;25.20;40.59
78366;HTU21D;67641;59.864;30.464;2023-12-20T11:43:56;24.85;42.21
78366;HTU21D;67641;59.864;30.464;2023-12-20T11:46:22;24.51;43.07
78366;HTU21D;67641;59.864;30.464;2023-12-20T11:48:50;24.32;45.03
78366;HTU21D;67641;59.864;30.464;2023-12-20T11:51:17;24.83;43.82
78366;HTU21D;67641;59.864;30.464;2023-12-20T11:53:43;24.77;43.56
78366;HTU21D;67641;59.864;30.464;2023-12-20T11:56:10;24.99;44.18
78366;HTU21D;67641;59.864;30.464;2023-12-20T11:58:37;24.86;44.16
78366;HTU21D;67641;59.864;30.464;2023-12-20T12:01:05;25.12;42.71
78366;HTU21D;67641;59.864;30.464;2023-12-20T12:03:33;25.17;43.06
78366;HTU21D;67641;59.864;30.464;2023-12-20T12:06:00;25.13;43.36
78366;HTU21D;67641;59.864;30.464;2023-12-20T12:08:29;25.13;43.52
78366;HTU21D;67641;59.864;30.464;2023-12-20T12:10:56;25.47;42.94
78366;HTU21D;67641;59.864;30.464;2023-12-20T12:13:22;25.38;43.06
78366;HTU21D;67641;59.864;30.464;2023-12-20T12:15:49;25.32;42.67
78366;HTU21D;67641;59.864;30.464;2023-12-20T12:18:17;25.30;41.98
78366;HTU21D;67641;59.864;30.464;2023-12-20T12:20:44;25.49;41.91
78366;HTU21D;67641;59.864;30.464;2023-12-20T12:23:12;24.85;42.48
78366;HTU21D;67641;59.864;30.464;2023-12-20T12:25:38;24.25;44.50
78366;HTU21D;67641;59.864;30.464;2023-12-20T12:28:05;24.25;44.60
78366;HTU21D;67641;59.864;30.464;2023-12-20T12:30:31;23.88;45.74
78366;HTU21D;67641;59.864;30.464;2023-12-20T12:32:58;23.60;45.70
78366;HTU21D;67641;59.864;30.464;2023-12-20T12:35:25;23.22;47.36
78366;HTU21D;67641;59.864;30.464;2023-12-20T12:37:51;23.21;46.60
78366;HTU21D;67641;59.864;30.464;2023-12-20T12:40:18;23.35;46.37
78366;HTU21D;67641;59.864;30.464;2023-12-20T12:42:45;23.42;46.73
78366;HTU21D;67641;59.864;30.464;2023-12-20T12:45:12;23.50;45.06
78366;HTU21D;67641;59.864;30.464;2023-12-20T12:47:40;23.24;45.67
78366;HTU21D;67641;59.864;30.464;2023-12-20T12:50:07;23.21;47.06
78366;HTU21D;67641;59.864;30.464;2023-12-20T12:52:34;22.96;47.47
78366;HTU21D;67641;59.864;30.464;2023-12-20T12:55:01;22.76;47.30
78366;HTU21D;67641;59.864;30.464;2023-12-20T12:57:27;23.08;46.96
78366;HTU21D;67641;59.864;30.464;2023-12-20T12:59:54;23.06;45.70
78366;HTU21D;67641;59.864;30.464;2023-12-20T13:02:20;22.70;47.99
78366;HTU21D;67641;59.864;30.464;2023-12-20T13:04:47;22.35;47.80
78366;HTU21D;67641;59.864;30.464;2023-12-20T13:07:13;21.97;48.29
78366;HTU21D;67641;59.864;30.464;2023-12-20T13:09:40;21.74;48.88
78366;HTU21D;67641;59.864;30.464;2023-12-20T13:12:07;21.61;48.31
78366;HTU21D;67641;59.864;30.464;2023-12-20T13:14:34;21.49;49.60
78366;HTU21D;67641;59.864;30.464;2023-12-20T13:17:01;21.39;49.69
78366;HTU21D;67641;59.864;30.464;2023-12-20T13:19:27;21.29;48.79
78366;HTU21D;67641;59.864;30.464;2023-12-20T13:21:54;21.24;49.11
78366;HTU21D;67641;59.864;30.464;2023-12-20T13:24:20;21.19;48.91
78366;HTU21D;67641;59.864;30.464;2023-12-20T13:26:47;21.15;49.47
78366;HTU21D;67641;59.864;30.464;2023-12-20T13:29:13;21.15;50.53
78366;HTU21D;67641;59.864;30.464;2023-12-20T13:31:40;21.03;50.44
78366;HTU21D;67641;59.864;30.464;2023-12-20T13:34:07;21.10;50.43
78366;HTU21D;67641;59.864;30.464;2023-12-20T13:36:33;21.00;49.47
78366;HTU21D;67641;59.864;30.464;2023-12-20T13:39:00;20.76;50.12
78366;HTU21D;67641;59.864;30.464;2023-12-20T13:41:27;20.54;50.84
78366;HTU21D;67641;59.864;30.464;2023-12-20T13:43:53;20.32;49.60
78366;HTU21D;67641;59.864;30.464;2023-12-20T13:46:20;20.16;50.14
78366;HTU21D;67641;59.864;30.464;2023-12-20T13:48:47;20.07;50.39
78366;HTU21D;67641;59.864;30.464;2023-12-20T13:51:13;20.04;50.98
78366;HTU21D;67641;59.864;30.464;2023-12-20T13:53:40;19.98;51.29
78366;HTU21D;67641;59.864;30.464;2023-12-20T13:56:06;19.99;50.52
78366;HTU21D;67641;59.864;30.464;2023-12-20T13:58:33;19.90;50.63
78366;HTU21D;67641;59.864;30.464;2023-12-20T14:01:00;19.90;50.34
78366;HTU21D;67641;59.864;30.464;2023-12-20T14:03:26;19.89;50.41
78366;HTU21D;67641;59.864;30.464;2023-12-20T14:05:53;19.91;50.57
78366;HTU21D;67641;59.864;30.464;2023-12-20T14:08:20;19.83;50.20
78366;HTU21D;67641;59.864;30.464;2023-12-20T14:10:46;19.72;51.13
78366;HTU21D;67641;59.864;30.464;2023-12-20T14:13:13;19.68;50.21
78366;HTU21D;67641;59.864;30.464;2023-12-20T14:15:44;19.62;50.68
78366;HTU21D;67641;59.864;30.464;2023-12-20T14:18:16;19.59;51.56
78366;HTU21D;67641;59.864;30.464;2023-12-20T14:20:43;19.48;50.82
78366;HTU21D;67641;59.864;30.464;2023-12-20T14:23:10;19.45;51.10
78366;HTU21D;67641;59.864;30.464;2023-12-20T14:25:37;19.42;50.85
78366;HTU21D;67641;59.864;30.464;2023-12-20T14:28:04;19.36;50.86
78366;HTU21D;67641;59.864;30.464;2023-12-20T14:30:31;19.35;50.55
78366;HTU21D;67641;59.864;30.464;2023-12-20T14:32:59;19.30;50.63
78366;HTU21D;67641;59.864;30.464;2023-12-20T14:35:26;19.25;50.30
78366;HTU21D;67641;59.864;30.464;2023-12-20T14:37:52;19.20;50.09
78366;HTU21D;67641;59.864;30.464;2023-12-20T14:40:19;19.13;49.91
78366;HTU21D;67641;59.864;30.464;2023-12-20T14:42:46;19.10;49.72
78366;HTU21D;67641;59.864;30.464;2023-12-20T14:45:14;19.07;49.92
78366;HTU21D;67641;59.864;30.464;2023-12-20T14:47:40;19.01;50.05
78366;HTU21D;67641;59.864;30.464;2023-12-20T14:50:07;18.98;50.13
78366;HTU21D;67641;59.864;30.464;2023-12-20T14:52:34;18.97;50.15
78366;HTU21D;67641;59.864;30.464;2023-12-20T14:55:01;18.94;50.26
78366;HTU21D;67641;59.864;30.464;2023-12-20T14:57:30;18.87;50.37
78366;HTU21D;67641;59.864;30.464;2023-12-20T14:59:57;18.80;50.79
78366;HTU21D;67641;59.864;30.464;2023-12-20T15:02:24;18.76;50.94
78366;HTU21D;67641;59.864;30.464;2023-12-20T15:04:50;18.71;51.14
78366;HTU21D;67641;59.864;30.464;2023-12-20T15:07:19;18.72;51.14